Time;durP1;ratioP1;P1;durP2;ratioP2;P2;SDS_P1;SDS_P2;PMS_P1;PMS_P2;Temp;Humidity;BMP_temperature;BMP_pressure;BME280_temperature;BME280_humidity;BME280_pressure;Samples;Min_cycle;Max_cycle;Signal;HPM_P1;HPM_P2
2023/09/26 00:00:57;;;;;;;2.40;2.20;;;11.90;99.90;11.80;101407.00;;;;4968720;28;93937;-66
2023/09/26 00:03:23;;;;;;;3.83;3.10;;;11.80;99.90;11.70;101410.00;;;;4990218;28;88646;-67
2023/09/26 00:05:49;;;;;;;3.03;2.23;;;11.70;99.90;11.60;101412.00;;;;4975323;28;87525;-66
2023/09/26 00:08:15;;;;;;;3.37;3.07;;;11.70;99.90;11.60;101405.00;;;;4987735;28;87770;-66
2023/09/26 00:10:40;;;;;;;5.27;3.17;;;12.30;99.90;11.50;101399.00;;;;4993030;28;87990;-65
2023/09/26 00:13:06;;;;;;;4.03;2.63;;;12.00;99.90;11.50;101409.00;;;;4990011;28;104158;-65
2023/09/26 00:15:35;;;;;;;6.17;4.33;;;11.60;99.90;11.50;101407.00;;;;4993365;28;88087;-66
2023/09/26 00:18:02;;;;;;;3.27;2.87;;;11.50;99.90;11.50;101404.00;;;;4989801;28;107131;-66
2023/09/26 00:20:28;;;;;;;3.93;3.03;;;11.50;99.90;11.40;101404.00;;;;4995171;27;88620;-66
2023/09/26 00:22:55;;;;;;;6.80;4.00;;;11.50;99.90;11.40;101411.00;;;;4990935;28;88439;-66
2023/09/26 00:25:22;;;;;;;5.83;4.33;;;11.50;99.90;11.40;101409.00;;;;4994021;28;87717;-66
2023/09/26 00:27:49;;;;;;;3.77;3.40;;;11.40;99.90;11.40;101401.00;;;;4993727;28;87998;-66
2023/09/26 00:30:17;;;;;;;4.27;3.00;;;11.40;99.90;11.40;101407.00;;;;4995035;28;88677;-67
2023/09/26 00:32:45;;;;;;;6.20;2.70;;;11.40;99.90;11.40;101395.00;;;;4994039;28;91090;-66
2023/09/26 00:35:12;;;;;;;3.07;2.73;;;11.40;99.90;11.40;101399.00;;;;4991792;27;87703;-64
2023/09/26 00:37:42;;;;;;;5.50;3.70;;;11.50;99.90;11.40;101390.00;;;;4995292;28;87688;-66
2023/09/26 00:40:18;;;;;;;5.60;3.70;;;11.40;99.90;11.40;101398.00;;;;4981938;28;88142;-66
2023/09/26 00:42:50;;;;;;;4.20;3.80;;;11.40;99.90;11.40;101392.00;;;;4990170;28;89907;-65
2023/09/26 00:45:16;;;;;;;5.53;3.07;;;11.40;99.90;11.40;101388.00;;;;4994051;28;100589;-66
2023/09/26 00:47:43;;;;;;;4.67;3.10;;;11.40;99.90;11.40;101396.00;;;;4976665;28;87880;-65
2023/09/26 00:50:12;;;;;;;5.97;3.60;;;11.40;99.90;11.40;101397.00;;;;4987494;28;118027;-65
2023/09/26 00:52:41;;;;;;;3.80;3.00;;;11.40;99.90;11.40;101406.00;;;;4988972;28;87876;-65
2023/09/26 00:55:08;;;;;;;4.23;2.80;;;11.40;99.90;11.40;101402.00;;;;4993468;27;88032;-66
2023/09/26 00:57:35;;;;;;;5.57;3.17;;;11.40;99.90;11.40;101389.00;;;;4991691;28;87992;-66
2023/09/26 01:00:02;;;;;;;3.43;3.03;;;11.40;99.90;11.40;101395.00;;;;4973241;28;115234;-66
2023/09/26 01:02:28;;;;;;;3.63;3.00;;;11.40;99.90;11.40;101385.00;;;;4993602;28;92309;-66
2023/09/26 01:04:54;;;;;;;11.17;3.60;;;11.40;99.90;11.40;101394.00;;;;4991526;28;93285;-66
2023/09/26 01:07:21;;;;;;;5.83;4.27;;;11.40;99.90;11.40;101387.00;;;;4992583;28;88605;-66
2023/09/26 01:09:48;;;;;;;6.97;4.83;;;11.40;99.90;11.40;101389.00;;;;4987572;28;87775;-67
2023/09/26 01:12:15;;;;;;;6.60;4.23;;;11.40;99.90;11.30;101394.00;;;;4994395;28;109650;-66
2023/09/26 01:14:47;;;;;;;7.30;4.27;;;11.40;99.90;11.30;101384.00;;;;4990464;28;87519;-66
2023/09/26 01:17:13;;;;;;;5.73;4.40;;;11.30;99.90;11.30;101385.00;;;;4972301;28;107371;-67
2023/09/26 01:19:38;;;;;;;5.07;4.57;;;11.30;99.90;11.20;101392.00;;;;4990347;28;92054;-66
2023/09/26 01:22:04;;;;;;;7.07;4.50;;;11.30;99.90;11.20;101388.00;;;;4990468;28;116315;-67
2023/09/26 01:24:30;;;;;;;4.93;4.07;;;11.20;99.90;11.20;101390.00;;;;4992950;27;109794;-66
2023/09/26 01:26:55;;;;;;;6.23;4.63;;;11.20;99.90;11.20;101397.00;;;;4995594;28;87810;-66
2023/09/26 01:29:21;;;;;;;4.00;3.20;;;11.20;99.90;11.20;101392.00;;;;4987018;28;101882;-66
2023/09/26 01:31:47;;;;;;;5.47;3.20;;;11.20;99.90;11.20;101383.00;;;;4992370;27;117774;-66
2023/09/26 01:34:13;;;;;;;5.20;3.23;;;11.20;99.90;11.10;101391.00;;;;4988719;28;87878;-66
2023/09/26 01:36:38;;;;;;;6.10;3.83;;;12.40;99.90;11.20;101394.00;;;;4990417;27;87567;-66
2023/09/26 01:39:05;;;;;;;4.30;3.57;;;11.20;99.90;11.10;101390.00;;;;4975171;28;90010;-67
2023/09/26 01:41:31;;;;;;;4.20;3.20;;;11.20;99.90;11.10;101389.00;;;;4990765;28;88406;-66
2023/09/26 01:43:57;;;;;;;4.57;3.17;;;11.10;99.90;11.00;101388.00;;;;4986269;28;88068;-66
2023/09/26 01:46:23;;;;;;;6.07;3.97;;;11.10;99.90;11.00;101392.00;;;;4988425;28;87865;-66
2023/09/26 01:48:49;;;;;;;6.20;4.10;;;11.00;99.90;11.00;101391.00;;;;4971278;28;87962;-66
2023/09/26 01:51:14;;;;;;;7.33;3.43;;;11.00;99.90;10.90;101391.00;;;;4991077;28;88751;-67
2023/09/26 01:53:40;;;;;;;4.90;4.00;;;11.00;99.90;10.90;101388.00;;;;4968206;28;109314;-67
2023/09/26 01:56:06;;;;;;;6.53;4.87;;;11.00;99.90;10.90;101397.00;;;;4975840;28;88516;-67
2023/09/26 01:58:32;;;;;;;5.53;4.57;;;11.00;99.90;10.90;101385.00;;;;4989282;28;117370;-65
2023/09/26 02:00:58;;;;;;;7.07;4.10;;;11.00;99.90;10.90;101386.00;;;;4989408;28;88256;-66
2023/09/26 02:03:24;;;;;;;5.07;3.97;;;10.90;99.90;10.90;101386.00;;;;4989642;28;92451;-66
2023/09/26 02:05:52;;;;;;;5.13;4.20;;;10.90;99.90;10.90;101377.00;;;;4988768;27;87772;-65
2023/09/26 02:08:18;;;;;;;6.67;5.03;;;10.90;99.90;10.80;101379.00;;;;4993344;28;87799;-65
2023/09/26 02:10:44;;;;;;;5.23;4.60;;;10.90;99.90;10.80;101384.00;;;;4991106;27;88094;-66
2023/09/26 02:13:09;;;;;;;7.27;4.47;;;10.90;99.90;10.80;101374.00;;;;4989034;28;87217;-67
2023/09/26 02:15:36;;;;;;;5.63;4.10;;;10.80;99.90;10.80;101378.00;;;;4995784;28;87808;-67
2023/09/26 02:18:02;;;;;;;7.63;4.70;;;10.80;99.90;10.80;101379.00;;;;4995080;28;88793;-65
2023/09/26 02:20:34;;;;;;;4.83;3.90;;;10.80;99.90;10.70;101369.00;;;;4960204;28;90683;-66
2023/09/26 02:23:00;;;;;;;7.27;4.17;;;10.80;99.90;10.70;101380.00;;;;4991779;28;110101;-66
2023/09/26 02:25:27;;;;;;;4.77;3.43;;;10.80;99.90;10.80;101381.00;;;;4994009;28;107444;-66
2023/09/26 02:27:53;;;;;;;6.17;4.37;;;10.80;99.90;10.80;101371.00;;;;4996127;28;89325;-67
2023/09/26 02:30:28;;;;;;;4.97;3.73;;;10.80;99.90;10.80;101367.00;;;;4993029;28;87757;-66
2023/09/26 02:32:54;;;;;;;4.73;2.73;;;10.80;99.90;10.80;101369.00;;;;4993010;28;88028;-66
2023/09/26 02:35:20;;;;;;;4.73;3.60;;;10.80;99.90;10.70;101367.00;;;;4996498;28;88109;-65
2023/09/26 02:37:47;;;;;;;4.90;3.80;;;10.80;99.90;10.70;101374.00;;;;4986797;28;108975;-66
2023/09/26 02:40:13;;;;;;;3.33;2.80;;;10.80;99.90;10.70;101382.00;;;;4964207;28;96127;-66
2023/09/26 02:42:45;;;;;;;5.23;3.80;;;10.80;99.90;10.70;101378.00;;;;4994034;28;110840;-66
2023/09/26 02:45:13;;;;;;;4.00;3.53;;;10.80;99.90;10.70;101381.00;;;;4991066;28;88506;-65
2023/09/26 02:47:39;;;;;;;3.70;2.80;;;10.70;99.90;10.70;101377.00;;;;4991020;28;87931;-65
2023/09/26 02:50:06;;;;;;;4.83;3.20;;;10.70;99.90;10.70;101375.00;;;;4994868;28;90604;-66
2023/09/26 02:52:31;;;;;;;2.97;2.77;;;10.70;99.90;10.70;101370.00;;;;4993010;27;87973;-65
2023/09/26 02:54:58;;;;;;;4.43;3.27;;;10.70;99.90;10.70;101376.00;;;;4995120;28;109533;-67
2023/09/26 02:57:23;;;;;;;4.83;3.00;;;10.80;99.90;10.70;101378.00;;;;4994879;28;88661;-66
2023/09/26 02:59:49;;;;;;;3.83;3.17;;;10.80;99.90;10.70;101376.00;;;;4989602;28;117475;-66
2023/09/26 03:02:15;;;;;;;5.67;3.57;;;10.80;99.90;10.70;101371.00;;;;4979195;28;86840;-67
2023/09/26 03:04:40;;;;;;;6.43;4.37;;;10.70;99.90;10.70;101378.00;;;;4990787;28;87993;-66
2023/09/26 03:07:06;;;;;;;3.37;2.63;;;10.70;99.90;10.70;101374.00;;;;4994783;28;109305;-66
2023/09/26 03:09:32;;;;;;;3.73;3.10;;;10.70;99.90;10.60;101371.00;;;;4991177;27;117305;-68
2023/09/26 03:11:57;;;;;;;5.17;3.37;;;10.70;99.90;10.60;101363.00;;;;4993642;28;109284;-66
2023/09/26 03:14:23;;;;;;;3.33;3.10;;;10.70;99.90;10.60;101366.00;;;;4993856;28;96513;-66
2023/09/26 03:16:49;;;;;;;4.30;3.63;;;10.60;99.90;10.50;101370.00;;;;4989728;27;98148;-66
2023/09/26 03:19:23;;;;;;;4.73;3.77;;;10.60;99.90;10.50;101364.00;;;;4991494;28;117019;-66
2023/09/26 03:21:52;;;;;;;5.10;3.40;;;10.60;99.90;10.50;101366.00;;;;4979767;28;87590;-66
2023/09/26 03:24:28;;;;;;;5.50;3.57;;;10.50;99.90;10.40;101373.00;;;;4989781;28;109840;-65
2023/09/26 03:26:53;;;;;;;8.80;3.87;;;10.50;99.90;10.40;101360.00;;;;4982117;28;118489;-65
2023/09/26 03:29:19;;;;;;;4.57;3.07;;;10.50;99.90;10.30;101363.00;;;;4986787;28;117733;-67
2023/09/26 03:31:45;;;;;;;5.10;3.17;;;10.40;99.90;10.30;101358.00;;;;4993203;28;87774;-66
2023/09/26 03:34:11;;;;;;;5.67;4.00;;;10.40;99.90;10.30;101356.00;;;;4990262;28;88820;-66
2023/09/26 03:36:37;;;;;;;3.73;3.43;;;10.30;99.90;10.20;101344.00;;;;4988171;28;87781;-66
2023/09/26 03:39:03;;;;;;;4.83;3.27;;;11.40;99.90;10.20;101341.00;;;;4979982;28;115836;-66
2023/09/26 03:41:30;;;;;;;4.87;3.23;;;10.30;99.90;10.10;101345.00;;;;4988407;28;87567;-66
2023/09/26 03:43:56;;;;;;;3.93;3.40;;;10.20;99.90;10.10;101348.00;;;;4988169;28;87605;-66
2023/09/26 03:46:22;;;;;;;3.97;2.93;;;10.20;99.90;10.10;101342.00;;;;4992054;28;116576;-65
2023/09/26 03:48:49;;;;;;;4.77;3.60;;;10.10;99.90;10.00;101347.00;;;;4993066;28;106695;-65
2023/09/26 03:51:15;;;;;;;3.77;2.80;;;10.10;99.90;10.00;101340.00;;;;4988938;28;87055;-66
2023/09/26 03:53:42;;;;;;;3.00;2.80;;;10.10;99.90;10.00;101341.00;;;;4989772;28;95560;-66
2023/09/26 03:56:08;;;;;;;3.50;3.20;;;10.10;99.90;10.00;101340.00;;;;4989927;28;107835;-66
2023/09/26 03:58:35;;;;;;;4.23;3.13;;;10.00;99.90;9.90;101343.00;;;;4991661;28;88850;-66
2023/09/26 04:01:27;;;;;;;5.00;3.17;;;10.00;99.90;9.90;101342.00;;;;4988962;28;89554;-66
2023/09/26 04:03:53;;;;;;;4.23;3.30;;;10.00;99.90;9.90;101345.00;;;;4985879;28;107327;-66
2023/09/26 04:06:19;;;;;;;3.87;3.50;;;10.00;99.90;9.90;101340.00;;;;4988590;28;117650;-66
2023/09/26 04:08:45;;;;;;;4.53;4.07;;;10.00;99.90;9.90;101340.00;;;;4988893;28;116772;-66
2023/09/26 04:11:17;;;;;;;3.30;2.73;;;10.00;99.90;9.90;101341.00;;;;4992146;28;87906;-66
2023/09/26 04:13:44;;;;;;;3.57;3.17;;;10.00;99.90;10.00;101330.00;;;;4992292;28;87509;-67
2023/09/26 04:16:10;;;;;;;4.33;3.30;;;10.40;99.90;10.00;101333.00;;;;4992229;28;88353;-66
2023/09/26 04:18:36;;;;;;;3.27;2.97;;;10.00;99.90;10.00;101323.00;;;;4992865;28;88043;-66
2023/09/26 04:21:06;;;;;;;3.33;3.03;;;10.10;99.90;10.00;101321.00;;;;4992183;27;87873;-66
2023/09/26 04:23:32;;;;;;;4.03;3.03;;;10.60;99.90;10.00;101322.00;;;;4990865;28;90598;-66
2023/09/26 04:25:58;;;;;;;3.87;3.30;;;10.10;99.90;10.00;101324.00;;;;4992778;28;89008;-66
2023/09/26 04:28:24;;;;;;;3.43;3.13;;;10.10;99.90;10.00;101313.00;;;;4993266;27;88192;-66
2023/09/26 04:30:50;;;;;;;4.37;2.90;;;10.10;99.90;10.00;101317.00;;;;4974238;28;87772;-66
2023/09/26 04:33:16;;;;;;;3.33;2.93;;;10.10;99.90;10.00;101313.00;;;;4991173;28;88097;-66
2023/09/26 04:35:42;;;;;;;3.93;3.20;;;10.10;99.90;10.00;101315.00;;;;4990902;28;87645;-66
2023/09/26 04:38:08;;;;;;;4.60;3.63;;;10.10;99.90;10.00;101319.00;;;;4992525;28;116992;-66
2023/09/26 04:40:34;;;;;;;3.30;3.03;;;10.10;99.90;10.00;101316.00;;;;4989168;28;110722;-66
2023/09/26 04:43:04;;;;;;;5.47;3.43;;;10.10;99.90;10.00;101319.00;;;;4992278;28;87867;-67
2023/09/26 04:45:31;;;;;;;4.47;3.27;;;10.10;99.90;10.00;101315.00;;;;4992207;28;88230;-67
2023/09/26 04:48:03;;;;;;;4.57;3.40;;;10.10;99.90;10.10;101322.00;;;;4992618;28;88980;-66
2023/09/26 04:50:30;;;;;;;6.00;3.47;;;10.10;99.90;10.00;101314.00;;;;4993078;28;88017;-66
2023/09/26 04:52:57;;;;;;;4.57;3.60;;;10.10;99.90;10.00;101308.00;;;;4974429;28;87750;-66
2023/09/26 04:55:23;;;;;;;5.00;3.20;;;10.10;99.90;10.00;101309.00;;;;4991032;28;88190;-67
2023/09/26 04:57:49;;;;;;;5.23;3.07;;;10.10;99.90;10.00;101305.00;;;;4988712;28;88381;-66
2023/09/26 05:00:19;;;;;;;2.50;2.30;;;10.10;99.90;10.00;101312.00;;;;4990593;28;89097;-66
2023/09/26 05:02:54;;;;;;;4.23;3.50;;;10.10;99.90;10.00;101312.00;;;;4987423;28;87731;-67
2023/09/26 05:05:20;;;;;;;3.00;2.60;;;10.00;99.90;10.00;101311.00;;;;4973852;28;88289;-66
2023/09/26 05:07:48;;;;;;;3.63;3.07;;;10.00;99.90;10.00;101317.00;;;;4989395;28;87715;-67
2023/09/26 05:10:15;;;;;;;6.33;3.50;;;10.00;99.90;10.00;101311.00;;;;4973210;28;87608;-67
2023/09/26 05:12:42;;;;;;;3.50;2.57;;;10.00;99.90;10.00;101314.00;;;;4994454;27;88746;-67
2023/09/26 05:15:13;;;;;;;2.97;2.70;;;10.00;99.90;10.00;101310.00;;;;4989537;28;88437;-66
2023/09/26 05:17:49;;;;;;;2.87;2.43;;;10.00;99.90;10.00;101322.00;;;;4986446;28;107496;-66
2023/09/26 05:20:15;;;;;;;5.33;3.70;;;10.00;99.90;9.90;101318.00;;;;4976289;28;87781;-66
2023/09/26 05:22:44;;;;;;;2.87;2.50;;;10.00;99.90;9.90;101316.00;;;;4992945;27;87967;-66
2023/09/26 05:25:13;;;;;;;2.97;2.73;;;10.00;99.90;9.90;101322.00;;;;4990993;28;88398;-67
2023/09/26 05:27:41;;;;;;;3.80;3.50;;;10.00;99.90;9.90;101329.00;;;;4980586;28;88095;-66
2023/09/26 05:30:09;;;;;;;5.97;3.20;;;10.00;99.90;10.00;101319.00;;;;4987823;28;87103;-66
2023/09/26 05:32:35;;;;;;;4.57;3.70;;;10.00;99.90;10.00;101326.00;;;;4989788;28;87431;-66
2023/09/26 05:35:04;;;;;;;6.53;3.73;;;10.00;99.90;10.00;101331.00;;;;4989364;28;87760;-66
2023/09/26 05:37:30;;;;;;;4.87;3.93;;;10.00;99.90;10.10;101339.00;;;;4987604;28;88532;-67
2023/09/26 05:39:55;;;;;;;8.10;4.50;;;10.10;99.90;10.10;101329.00;;;;4990091;28;87666;-67
2023/09/26 05:42:22;;;;;;;6.03;3.27;;;10.10;99.90;10.20;101330.00;;;;4990804;28;107396;-66
2023/09/26 05:44:48;;;;;;;4.70;4.07;;;10.20;99.90;10.40;101339.00;;;;4973337;28;87828;-66
2023/09/26 05:47:13;;;;;;;4.67;3.77;;;10.30;99.90;10.50;101337.00;;;;4972080;28;113872;-66
2023/09/26 05:49:39;;;;;;;3.43;3.13;;;10.50;99.90;10.70;101343.00;;;;4959132;28;112956;-66
2023/09/26 05:52:05;;;;;;;4.87;3.67;;;10.60;99.90;10.80;101342.00;;;;4987213;28;107997;-66
2023/09/26 05:54:33;;;;;;;4.50;3.27;;;10.80;99.90;10.90;101343.00;;;;4984520;28;116037;-66
2023/09/26 05:57:02;;;;;;;3.60;3.13;;;10.90;99.90;11.10;101336.00;;;;4969321;28;88140;-66
2023/09/26 05:59:29;;;;;;;4.57;4.07;;;11.00;99.90;11.20;101332.00;;;;4977129;28;88628;-66
2023/09/26 06:01:54;;;;;;;3.47;3.03;;;11.20;99.90;11.40;101333.00;;;;4989878;28;101749;-65
2023/09/26 06:04:20;;;;;;;3.37;3.07;;;11.30;99.90;11.60;101340.00;;;;4973197;28;116461;-66
2023/09/26 06:06:46;;;;;;;5.27;4.13;;;12.30;99.90;11.90;101350.00;;;;4991306;27;88272;-65
2023/09/26 06:09:11;;;;;;;4.23;3.60;;;11.80;99.90;12.10;101348.00;;;;4989320;28;98704;-66
2023/09/26 06:11:37;;;;;;;5.70;3.93;;;12.00;99.90;12.30;101341.00;;;;4988907;28;107767;-65
2023/09/26 06:14:03;;;;;;;5.47;4.00;;;12.20;99.90;12.50;101350.00;;;;4991493;27;118851;-66
2023/09/26 06:16:28;;;;;;;4.90;4.40;;;12.50;99.90;12.70;101344.00;;;;4989380;28;116575;-66
2023/09/26 06:18:55;;;;;;;6.83;5.07;;;12.60;99.90;12.90;101340.00;;;;4984741;27;110701;-65
2023/09/26 06:21:20;;;;;;;6.93;3.77;;;12.80;99.90;13.10;101338.00;;;;4984145;27;87566;-65
2023/09/26 06:23:48;;;;;;;4.67;3.17;;;13.10;99.90;13.40;101340.00;;;;4988891;28;104619;-65
2023/09/26 06:26:14;;;;;;;4.13;2.97;;;13.30;99.90;13.60;101331.00;;;;4989405;27;88992;-65
2023/09/26 06:28:40;;;;;;;5.37;2.97;;;13.50;99.90;13.90;101337.00;;;;4992381;28;88044;-65
2023/09/26 06:31:10;;;;;;;2.97;2.73;;;13.80;99.90;14.20;101339.00;;;;4989853;28;95797;-66
2023/09/26 06:33:36;;;;;;;3.00;2.63;;;12.90;99.90;14.50;101349.00;;;;4987034;28;87678;-65
2023/09/26 06:36:15;;;;;;;6.73;4.20;;;14.30;99.90;14.70;101346.00;;;;4988584;28;88372;-65
2023/09/26 06:38:41;;;;;;;3.15;2.58;;;14.60;99.90;15.00;101347.00;;;;4977766;27;88361;-65
2023/09/26 06:41:07;;;;;;;4.18;2.85;;;14.80;99.90;15.30;101343.00;;;;4978789;28;111023;-66
2023/09/26 06:43:33;;;;;;;4.15;3.63;;;15.10;99.90;15.60;101349.00;;;;4978286;27;87524;-66
2023/09/26 06:46:08;;;;;;;4.90;2.42;;;15.40;99.90;15.90;101338.00;;;;4986548;28;88029;-65
2023/09/26 06:48:35;;;;;;;5.78;3.55;;;15.70;99.90;16.30;101345.00;;;;4989322;28;87451;-66
2023/09/26 06:51:02;;;;;;;2.72;2.50;;;16.00;99.90;16.60;101335.00;;;;4984856;28;90111;-66
2023/09/26 06:53:28;;;;;;;3.25;2.95;;;16.30;99.90;16.80;101344.00;;;;4971394;28;88776;-66
2023/09/26 06:56:05;;;;;;;3.65;3.10;;;16.60;99.90;17.20;101338.00;;;;4995664;28;88057;-66
2023/09/26 06:58:32;;;;;;;4.15;3.25;;;16.90;99.90;17.40;101344.00;;;;4993118;28;87668;-66
2023/09/26 07:00:59;;;;;;;3.33;3.03;;;17.20;99.90;17.70;101340.00;;;;4995512;28;88642;-65
2023/09/26 07:03:29;;;;;;;3.42;3.13;;;17.50;99.90;18.00;101338.00;;;;4992074;28;87771;-65
2023/09/26 07:05:56;;;;;;;3.80;3.15;;;17.80;99.90;18.30;101334.00;;;;4990186;28;88468;-64
2023/09/26 07:08:22;;;;;;;2.50;2.30;;;18.10;99.90;18.50;101331.00;;;;4992856;28;87127;-66
2023/09/26 07:10:55;;;;;;;3.97;3.50;;;18.30;99.90;18.80;101331.00;;;;4993375;28;87652;-66
2023/09/26 07:13:20;;;;;;;6.53;3.22;;;18.60;99.90;19.10;101343.00;;;;4990800;28;106110;-65
2023/09/26 07:15:46;;;;;;;4.57;3.33;;;18.80;99.90;19.30;101343.00;;;;4990779;27;88804;-66
2023/09/26 07:18:21;;;;;;;3.15;2.83;;;19.10;99.90;19.50;101337.00;;;;4979572;28;87979;-66
2023/09/26 07:20:47;;;;;;;2.83;2.40;;;19.40;99.90;19.70;101339.00;;;;4993614;28;87484;-66
2023/09/26 07:23:14;;;;;;;3.13;2.90;;;19.50;99.90;19.90;101332.00;;;;4979036;27;89702;-65
2023/09/26 07:25:40;;;;;;;4.38;2.97;;;19.60;99.90;20.10;101343.00;;;;4989639;28;88070;-66
2023/09/26 07:28:06;;;;;;;3.42;2.92;;;19.90;99.90;20.40;101341.00;;;;4977430;28;103788;-66
2023/09/26 07:30:32;;;;;;;7.00;3.20;;;20.10;99.90;20.70;101341.00;;;;4992110;28;95003;-66
2023/09/26 07:32:57;;;;;;;2.75;2.55;;;20.40;99.90;21.00;101341.00;;;;4992018;28;88059;-66
2023/09/26 07:35:23;;;;;;;5.35;3.00;;;20.70;99.90;21.30;101337.00;;;;4991402;28;115722;-65
2023/09/26 07:37:49;;;;;;;3.22;2.88;;;21.00;99.90;21.50;101341.00;;;;4988920;28;87773;-65
2023/09/26 07:40:15;;;;;;;7.40;2.85;;;21.20;99.90;21.70;101344.00;;;;4993632;28;109552;-65
2023/09/26 07:42:41;;;;;;;5.05;3.17;;;21.50;99.90;21.90;101342.00;;;;4990041;28;88570;-66
2023/09/26 07:45:08;;;;;;;3.25;2.53;;;21.70;99.90;22.00;101351.00;;;;4989689;27;87908;-64
2023/09/26 07:47:33;;;;;;;3.25;2.72;;;21.80;99.90;22.30;101339.00;;;;4994110;28;88150;-66
2023/09/26 07:49:59;;;;;;;3.05;2.30;;;22.00;99.90;22.50;101344.00;;;;4982135;28;88094;-64
2023/09/26 07:52:26;;;;;;;2.88;2.60;;;22.20;99.90;22.60;101336.00;;;;4991214;28;89201;-66
2023/09/26 07:54:52;;;;;;;3.55;3.22;;;22.40;99.90;22.80;101336.00;;;;4976968;28;89310;-67
2023/09/26 07:57:20;;;;;;;5.53;3.15;;;22.50;99.50;22.90;101340.00;;;;4980945;28;87938;-67
2023/09/26 07:59:46;;;;;;;2.28;2.08;;;22.70;99.30;23.10;101336.00;;;;4990303;28;92122;-66
2023/09/26 08:02:12;;;;;;;2.78;1.98;;;22.90;99.20;23.40;101339.00;;;;4982615;28;89791;-67
2023/09/26 08:04:38;;;;;;;4.82;1.90;;;23.10;98.70;23.70;101340.00;;;;4991959;28;96596;-66
2023/09/26 08:07:04;;;;;;;5.75;3.00;;;23.30;98.50;24.00;101335.00;;;;4991640;28;92184;-66
2023/09/26 08:09:31;;;;;;;2.67;2.08;;;23.60;98.20;24.20;101336.00;;;;4995686;28;87874;-67
2023/09/26 08:11:58;;;;;;;5.88;3.17;;;23.90;97.60;24.50;101338.00;;;;4989871;28;88914;-67
2023/09/26 08:14:24;;;;;;;2.00;1.80;;;24.20;97.10;24.80;101332.00;;;;4991651;28;87478;-67
2023/09/26 08:16:49;;;;;;;2.53;1.90;;;24.50;96.80;25.10;101341.00;;;;4992863;28;88080;-67
2023/09/26 08:19:15;;;;;;;3.53;2.58;;;24.80;95.40;25.30;101338.00;;;;4992920;28;88083;-66
2023/09/26 08:21:41;;;;;;;4.18;2.40;;;25.00;94.00;25.30;101344.00;;;;4991141;27;87169;-66
2023/09/26 08:24:07;;;;;;;2.38;2.00;;;25.00;93.20;25.30;101342.00;;;;4985908;28;115953;-66
2023/09/26 08:26:33;;;;;;;5.93;3.25;;;25.10;92.80;25.40;101346.00;;;;4990001;27;110464;-66
2023/09/26 08:28:59;;;;;;;3.08;2.55;;;25.10;92.10;25.40;101337.00;;;;4993188;28;88661;-65
2023/09/26 08:31:25;;;;;;;2.72;2.53;;;25.20;92.00;25.60;101334.00;;;;4982795;28;89885;-65
2023/09/26 08:33:51;;;;;;;4.07;2.50;;;25.30;91.40;25.70;101343.00;;;;4994003;28;87987;-65
2023/09/26 08:36:20;;;;;;;2.67;2.47;;;25.40;91.10;25.80;101345.00;;;;4991648;28;87984;-65
2023/09/26 08:38:50;;;;;;;3.25;2.10;;;25.40;90.90;25.90;101334.00;;;;4992494;28;87932;-66
2023/09/26 08:41:17;;;;;;;4.10;2.28;;;25.60;90.60;26.10;101335.00;;;;4990458;28;88863;-65
2023/09/26 08:43:44;;;;;;;3.55;1.98;;;25.80;88.80;26.10;101335.00;;;;4994404;28;89266;-65
2023/09/26 08:46:10;;;;;;;3.28;1.73;;;25.80;89.20;26.20;101341.00;;;;4995015;28;86887;-66
2023/09/26 08:48:38;;;;;;;3.63;2.55;;;25.90;88.50;26.30;101342.00;;;;4989531;28;88450;-67
2023/09/26 08:51:03;;;;;;;4.68;2.17;;;26.00;87.90;26.50;101330.00;;;;4993143;28;100312;-65
2023/09/26 08:53:30;;;;;;;3.22;2.13;;;26.10;86.40;26.60;101342.00;;;;4993468;28;88648;-66
2023/09/26 08:55:55;;;;;;;7.40;2.63;;;26.20;85.20;26.60;101333.00;;;;4989514;28;88982;-66
2023/09/26 08:58:21;;;;;;;2.58;1.70;;;26.30;85.60;26.80;101341.00;;;;4988517;28;107864;-67
2023/09/26 09:00:48;;;;;;;6.25;2.58;;;26.40;85.70;27.10;101335.00;;;;4973657;28;101099;-67
2023/09/26 09:03:14;;;;;;;3.35;2.47;;;26.60;83.70;27.10;101322.00;;;;4995351;28;88072;-67
2023/09/26 09:05:40;;;;;;;5.68;1.83;;;26.80;81.80;27.10;101320.00;;;;4990008;28;110794;-67
2023/09/26 09:08:08;;;;;;;5.18;2.10;;;26.70;82.70;27.20;101326.00;;;;4981238;28;87873;-66
2023/09/26 09:10:54;;;;;;;2.05;1.63;;;26.90;82.20;27.30;101322.00;;;;4977061;28;88353;-65
2023/09/26 09:13:30;;;;;;;3.03;2.00;;;26.90;81.40;27.50;101307.00;;;;4992062;28;93736;-67
2023/09/26 09:16:17;;;;;;;8.93;2.42;;;27.10;80.70;27.70;101305.00;;;;4988787;28;87932;-66
2023/09/26 09:18:58;;;;;;;4.70;2.10;;;27.30;79.40;27.90;101306.00;;;;4978161;28;89139;-66
2023/09/26 09:21:34;;;;;;;4.45;2.35;;;27.40;78.90;27.90;101306.00;;;;4955862;28;89976;-65
2023/09/26 09:24:06;;;;;;;6.22;2.40;;;27.50;77.80;28.10;101299.00;;;;4991781;27;87878;-66
2023/09/26 09:26:35;;;;;;;3.55;2.28;;;27.60;78.50;28.40;101304.00;;;;4991504;28;97915;-66
2023/09/26 09:29:19;;;;;;;5.30;3.08;;;27.90;77.10;28.60;101291.00;;;;4988838;28;87891;-66
2023/09/26 09:31:45;;;;;;;3.88;2.55;;;28.10;74.80;28.70;101295.00;;;;4990308;28;88819;-66
2023/09/26 09:34:12;;;;;;;1.90;1.50;;;28.20;74.60;28.80;101288.00;;;;4990308;28;87938;-67
2023/09/26 09:36:38;;;;;;;2.95;2.45;;;28.30;73.70;28.90;101287.00;;;;4991273;28;87153;-66
2023/09/26 09:39:08;;;;;;;5.82;2.40;;;28.40;73.20;29.00;101292.00;;;;4990825;28;89194;-67
2023/09/26 09:41:37;;;;;;;3.08;1.80;;;28.40;72.80;29.30;101283.00;;;;4986712;28;87709;-65
2023/09/26 09:44:03;;;;;;;2.63;2.17;;;28.70;72.50;29.50;101280.00;;;;4987277;28;88820;-66
2023/09/26 09:46:33;;;;;;;5.38;2.45;;;28.90;70.20;29.30;101285.00;;;;4989849;28;87757;-66
2023/09/26 09:49:02;;;;;;;2.20;1.92;;;28.90;68.80;29.20;101279.00;;;;4993419;28;87967;-66
2023/09/26 09:51:28;;;;;;;2.55;1.63;;;28.70;69.80;29.40;101277.00;;;;4986722;28;88296;-66
2023/09/26 09:53:55;;;;;;;2.20;1.63;;;28.80;69.90;29.40;101270.00;;;;4986620;28;88333;-65
2023/09/26 09:56:24;;;;;;;1.60;1.50;;;28.90;67.60;29.30;101275.00;;;;4976415;28;110047;-68
2023/09/26 09:59:00;;;;;;;2.50;1.95;;;28.90;68.40;29.50;101269.00;;;;4989264;28;87819;-66
2023/09/26 10:01:26;;;;;;;6.22;1.80;;;28.90;68.20;29.80;101266.00;;;;4975849;28;87786;-66
2023/09/26 10:03:53;;;;;;;2.53;1.75;;;29.10;67.90;29.90;101259.00;;;;4976506;28;88406;-68
2023/09/26 10:06:18;;;;;;;2.58;1.58;;;29.30;67.00;30.00;101271.00;;;;4974703;28;87985;-68
2023/09/26 10:08:47;;;;;;;2.03;1.55;;;29.40;66.40;30.10;101266.00;;;;4988340;28;107746;-67
2023/09/26 10:11:14;;;;;;;2.65;1.60;;;29.40;65.10;30.20;101268.00;;;;4979140;28;103072;-67
2023/09/26 10:13:41;;;;;;;2.92;1.23;;;29.60;65.00;30.30;101264.00;;;;4980054;28;98571;-66
2023/09/26 10:16:11;;;;;;;2.97;2.15;;;29.60;64.70;30.30;101265.00;;;;4990028;28;109632;-65
2023/09/26 10:18:43;;;;;;;4.72;2.30;;;29.70;64.70;30.30;101266.00;;;;4993867;28;87552;-65
2023/09/26 10:21:30;;;;;;;2.05;1.92;;;29.80;63.00;30.40;101269.00;;;;4990508;27;89138;-67
2023/09/26 10:24:07;;;;;;;2.30;1.90;;;29.80;64.00;30.60;101263.00;;;;4990552;28;90204;-70
2023/09/26 10:26:36;;;;;;;2.20;2.00;;;30.00;63.10;30.50;101268.00;;;;4989497;28;87867;-68
2023/09/26 10:29:12;;;;;;;2.58;1.80;;;30.00;62.30;30.40;101256.00;;;;4988590;28;87814;-68
2023/09/26 10:31:56;;;;;;;2.38;1.70;;;30.00;62.70;30.40;101260.00;;;;4982858;28;88149;-68
2023/09/26 10:34:28;;;;;;;2.88;2.10;;;29.90;62.50;30.40;101258.00;;;;4995406;28;88710;-69
2023/09/26 10:36:55;;;;;;;2.28;1.60;;;29.90;62.50;30.30;101254.00;;;;4976197;28;87962;-68
2023/09/26 10:39:36;;;;;;;2.13;1.27;;;29.80;62.20;30.30;101252.00;;;;4993621;28;87577;-68
2023/09/26 10:42:15;;;;;;;2.83;1.75;;;29.80;62.60;30.30;101249.00;;;;4971793;28;89548;-68
2023/09/26 10:44:45;;;;;;;3.53;2.00;;;29.80;62.50;30.40;101245.00;;;;4977898;28;88069;-69
2023/09/26 10:47:15;;;;;;;2.00;1.52;;;29.90;62.60;30.70;101244.00;;;;4993211;28;89532;-70